Portada
METAR-TAF:

METAR-TAF

Aeropuertos :

Pekín, China

Aeropuerto Internacional de Pekín-Capital

latitud: 39-56N, longitud: 116-17E, altitud: 55 m

Observación

El informe se hizo hace 27 minutos, a las 04:00 UTC
Viento 2 kt con dirección variable
Temperatura 25°C
Humedad 65%
Presión 1012 hPa
Visibilidad: 6000 m

METAR: ZBAA 250400Z VRB01MPS 6000 NSC 25/18 Q1012 NOSIG

Hora: 12:27 (04:27 UTC)

Pronóstico

El informe se hizo hace 6 horas y 57 minutos, a las 21:30 UTC
Pronóstico válido del 25 a las 00 UTC al 25 a las 24 UTC
Viento 8 kt del sureste
Visibilidad: 6000 m

TAF: ZBAA 242130Z 2500/2524 14004MPS 6000 NSC TX27/2507Z TN19/2522Z

Observaciones y pronósticos meteorológicos de más de 4000 aeropuertos (mensajes METAR y TAF).

Los puntos amarillos y rojos representan las estaciones disponibles.

Ponga el ratón en el punto deseado para ver el nombre de la estación.

Haga clic para ver las observaciones y los pronósticos meteorológicos.

Para cambiar el mapa : haga clic en los botones verdes con una cruz de color negro para hacer un zoom, en el botón verde con un guión para alejar o en las flechas verdes para mapas adyacentes.


METAR-TAF: